createdAt,value
2022-08-26T00:01:55.538Z,100273.22
2022-08-26T00:04:05.805Z,100275.36
2022-08-26T00:06:22.170Z,100272.28
2022-08-26T00:08:34.520Z,100274.55
2022-08-26T00:10:44.902Z,100267.61
2022-08-26T00:12:50.622Z,100269.97
2022-08-26T00:14:58.755Z,100267.39
2022-08-26T00:17:12.536Z,100268.22
2022-08-26T00:19:18.745Z,100271.08
2022-08-26T00:21:26.694Z,100271.58
2022-08-26T00:23:36.595Z,100272.86
2022-08-26T00:25:44.145Z,100275.89
2022-08-26T00:27:50.087Z,100274.42
2022-08-26T00:30:01.321Z,100269.2
2022-08-26T00:32:15.850Z,100270.53
2022-08-26T00:34:22.734Z,100267.99
2022-08-26T00:36:31.325Z,100268.66
2022-08-26T00:38:46.444Z,100266.55
2022-08-26T00:40:52.927Z,100261.72
2022-08-26T00:42:59.527Z,100268.94
2022-08-26T00:45:13.993Z,100265.04
2022-08-26T00:47:24.485Z,100269.12
2022-08-26T00:49:40.807Z,100267.86
2022-08-26T00:51:50.640Z,100268.38
2022-08-26T00:54:01.307Z,100268.02
2022-08-26T00:56:14.614Z,100271.27
2022-08-26T00:58:24.827Z,100275.54
2022-08-26T01:00:31.055Z,100274.41
2022-08-26T01:02:46.763Z,100276.52
2022-08-26T01:04:59.537Z,100275.23
2022-08-26T01:07:08.879Z,100276.54
2022-08-26T01:09:21.620Z,100279.93
2022-08-26T01:11:27.292Z,100277.06
2022-08-26T01:13:39.014Z,100276.87
2022-08-26T01:15:45.654Z,100280.78
2022-08-26T01:17:55.190Z,100282.88
2022-08-26T01:20:02.488Z,100282.16
2022-08-26T01:22:09.617Z,100279.88
2022-08-26T01:24:16.644Z,100281.92
2022-08-26T01:26:27.200Z,100285.38
2022-08-26T01:28:36.164Z,100285.98
2022-08-26T01:30:45.586Z,100285.29
2022-08-26T01:32:57.346Z,100284.22
2022-08-26T01:35:05.687Z,100284.78
2022-08-26T01:37:17.312Z,100285.33
2022-08-26T01:39:26.283Z,100288.6
2022-08-26T01:41:34.483Z,100287.66
2022-08-26T01:43:40.491Z,100286.64
2022-08-26T01:45:48.391Z,100288.67
2022-08-26T01:47:59.088Z,100283.55
2022-08-26T01:50:06.917Z,100284.64
2022-08-26T01:52:32.795Z,100285.05
2022-08-26T01:54:39.772Z,100287.45
2022-08-26T01:56:55.170Z,100285.61
2022-08-26T01:59:02.292Z,100283.66
2022-08-26T02:01:13.046Z,100284.45
2022-08-26T02:03:19.481Z,100279.52
2022-08-26T02:05:25.348Z,100278.19
2022-08-26T02:07:34.915Z,100281.14
2022-08-26T02:09:45.869Z,100282.84
2022-08-26T02:11:56.506Z,100285.16
2022-08-26T02:14:05.297Z,100283.33
2022-08-26T02:16:16.158Z,100290.07
2022-08-26T02:18:24.481Z,100287.31
2022-08-26T02:20:38.077Z,100285.72
2022-08-26T02:22:48.778Z,100285.52
2022-08-26T02:24:57.377Z,100283.18
2022-08-26T02:27:07.498Z,100282.74
2022-08-26T02:29:18.701Z,100283.01
2022-08-26T02:31:29.787Z,100281.75
2022-08-26T02:33:44.285Z,100280.23
2022-08-26T02:35:52.026Z,100278.33
2022-08-26T02:37:59.252Z,100274.85
2022-08-26T02:40:16.314Z,100276.89
2022-08-26T02:42:22.519Z,100274.63
2022-08-26T02:44:31.723Z,100276.44
2022-08-26T02:46:41.418Z,100270.78
2022-08-26T02:48:57.078Z,100272.52
2022-08-26T02:51:06.791Z,100276.05
2022-08-26T02:53:12.588Z,100273.59
2022-08-26T02:55:30.081Z,100273.05
2022-08-26T02:57:39.148Z,100275.39
2022-08-26T02:59:45.336Z,100271.8
2022-08-26T03:01:51.499Z,100272.07
2022-08-26T03:04:00.918Z,100267.22
2022-08-26T03:06:06.552Z,100269.38
2022-08-26T03:08:14.245Z,100273.07
2022-08-26T03:10:23.115Z,100267.2
2022-08-26T03:12:48.728Z,100263.41
2022-08-26T03:14:57.041Z,100269.64
2022-08-26T03:17:05.265Z,100268.44
2022-08-26T03:19:17.793Z,100265.26
2022-08-26T03:21:25.841Z,100267.92
2022-08-26T03:23:35.664Z,100262.2
2022-08-26T03:25:44.756Z,100264.64
2022-08-26T03:27:54.275Z,100263.1
2022-08-26T03:30:07.234Z,100264.67
2022-08-26T03:32:18.429Z,100265.3
2022-08-26T03:34:24.370Z,100263.69
2022-08-26T03:36:33.117Z,100263.3
2022-08-26T03:38:44.638Z,100260.52
2022-08-26T03:40:51.994Z,100257.34
2022-08-26T03:43:03.330Z,100254.4
2022-08-26T03:45:15.745Z,100258.02
2022-08-26T03:47:21.582Z,100252.98
2022-08-26T03:49:32.657Z,100248.72
2022-08-26T03:51:40.492Z,100250.94
2022-08-26T03:53:52.170Z,100246.77
2022-08-26T03:55:58.843Z,100248.26
2022-08-26T03:58:09.947Z,100249.11
2022-08-26T04:00:19.903Z,100243.27
2022-08-26T04:02:27.118Z,100245.02
2022-08-26T04:04:41.813Z,100244.6
2022-08-26T04:06:47.673Z,100241.7
2022-08-26T04:08:54.805Z,100241.61
2022-08-26T04:11:00.913Z,100242.77
2022-08-26T04:13:07.436Z,100242.09
2022-08-26T04:15:16.253Z,100247.52
2022-08-26T04:17:27.334Z,100244.88
2022-08-26T04:19:35.573Z,100243.8
2022-08-26T04:21:41.457Z,100241.48
2022-08-26T04:23:49.010Z,100243.89
2022-08-26T04:25:57.655Z,100244.23
2022-08-26T04:28:03.759Z,100246.98
2022-08-26T04:30:13.138Z,100245.43
2022-08-26T04:32:22.842Z,100248.94
2022-08-26T04:34:30.259Z,100252.27
2022-08-26T04:36:40.450Z,100252.98
2022-08-26T04:38:48.477Z,100253.98
2022-08-26T04:40:58.991Z,100256.7
2022-08-26T04:43:12.115Z,100259.61
2022-08-26T04:45:23.841Z,100260.68
2022-08-26T04:47:33.751Z,100260.14
2022-08-26T04:49:39.878Z,100264.95
2022-08-26T04:51:51.002Z,100260.2
2022-08-26T04:53:58.392Z,100261.8
2022-08-26T04:56:08.458Z,100260.36
2022-08-26T04:58:16.164Z,100258.99
2022-08-26T05:00:22.675Z,100259.63
2022-08-26T05:02:32.143Z,100257.63
2022-08-26T05:04:40.807Z,100260.95
2022-08-26T05:06:47.015Z,100260.44
2022-08-26T05:09:03.978Z,100259.78
2022-08-26T05:11:16.509Z,100256.17
2022-08-26T05:13:25.366Z,100260.15
2022-08-26T05:15:31.529Z,100260.47
2022-08-26T05:17:41.350Z,100262.93
2022-08-26T05:19:49.476Z,100262.46
2022-08-26T05:21:57.846Z,100264.49
2022-08-26T05:24:06.908Z,100266.76
2022-08-26T05:26:17.789Z,100265.13
2022-08-26T05:28:31.690Z,100267.23
2022-08-26T05:30:45.951Z,100269.05
2022-08-26T05:32:56.861Z,100266.11
2022-08-26T05:35:10.481Z,100269.55
2022-08-26T05:37:19.872Z,100273.16
2022-08-26T05:39:26.592Z,100275.27
2022-08-26T05:41:38.277Z,100282.2
2022-08-26T05:43:48.677Z,100283.56
2022-08-26T05:45:58.085Z,100281.89
2022-08-26T05:48:13.191Z,100280.5
2022-08-26T05:50:21.924Z,100288.23
2022-08-26T05:52:32.447Z,100287.69
2022-08-26T05:54:42.168Z,100284.55
2022-08-26T05:56:58.087Z,100283.83
2022-08-26T05:59:06.006Z,100283.88
2022-08-26T06:01:28.004Z,100281.98
2022-08-26T06:03:43.321Z,100276.36
2022-08-26T06:05:54.704Z,100269.57
2022-08-26T06:08:04.036Z,100268.83
2022-08-26T06:10:36.100Z,100267.71
2022-08-26T06:12:49.238Z,100271.7
2022-08-26T06:14:56.796Z,100266.84
2022-08-26T06:17:04.995Z,100268.8
2022-08-26T06:19:16.871Z,100264.75
2022-08-26T06:21:26.245Z,100264.7
2022-08-26T06:23:38.303Z,100264.86
2022-08-26T06:25:50.206Z,100263.84
2022-08-26T06:27:57.692Z,100266.35
2022-08-26T06:30:12.378Z,100265.08
2022-08-26T06:32:19.328Z,100268.83
2022-08-26T06:34:31.522Z,100264.63
2022-08-26T06:36:45.606Z,100266.52
2022-08-26T06:38:56.084Z,100267.34
2022-08-26T06:41:05.591Z,100265.53
2022-08-26T06:43:15.232Z,100261.27
2022-08-26T06:45:25.016Z,100259.56
2022-08-26T06:47:32.973Z,100260.22
2022-08-26T06:49:45.922Z,100260.9
2022-08-26T06:51:54.727Z,100258.41
2022-08-26T06:54:03.702Z,100252.64
2022-08-26T06:56:13.004Z,100254.77
2022-08-26T06:58:27.899Z,100254.29
2022-08-26T07:01:39.118Z,100255.45
2022-08-26T07:03:58.729Z,100253.53
2022-08-26T07:06:09.239Z,100254.63
2022-08-26T07:12:02.610Z,100253.55
